Benito, Canada
Current Conditions -  °F | °C
As of 4:17 PM on Monday 24 Nov 2014 (Local Time) from CYQV Reporting Station
Light Snow Light Snow  
Wind Chill:   Ceiling: 2600
Heat Index: 18°   Visibility: 6mi
Dew Point: 14°   Wind: 7mph
Humidity: 86%   Direction: 230°SW
Pressure: 29.89"   Gusts: NA
Location:  51.92°N, 101.55°W
Report Text: CYQV 242217Z AUTO 23006KT 6SM -SN BKN026 OVC035 M08/M10 A2989 RMK SLP168
Loading
Personal Weather Stations






























Interactive Weather Map New forecast layout! Learn more

10-Day Weather Forecast

Advertisements
Track Severe Weather on mobile